Odum, Georgia
Current Conditions -  °F | °C
As of 5:15 PM on Saturday 20 Dec 2014 (Local Time) from KJES Reporting Station
Overcast Overcast  
Wind Chill: 59°   Ceiling: 11000
Heat Index: 59°   Visibility: 10mi
Dew Point: 54°   Wind: 3mph
Humidity: 82%   Direction: 60°ENE
Pressure: 30.13"   Gusts: NA
Location:  31.67°N, 82.03°W
Report Text: KJES 202215Z AUTO 06003KT 10SM OVC110 15/12 A3013 RMK AO2
Loading
Personal Weather Stations






























Interactive Weather Map New forecast layout! Learn more

10-Day Weather Forecast

Advertisements
Track Severe Weather on mobile